Main page
METAR-TAF:

METAR-TAF

Airports :

Bhavnagar Airport

Bhavnagar, India

latitude: 21-45-08N, longitude: 72-11-07E, elevation: 6 m

Current weather observation

The report was made 5 hours and 52 minutes ago, at 12:00 UTC
Wind 3 kt from the East/Southeast
Temperature 31°C
Humidity 52%
Pressure 1011 hPa
Visibility: 6000 m

METAR: VABV 211200Z 11003KT 6000 NSC 31/20 Q1011

Time: 23:22 (17:52 UTC)

Forecast

The report was made 52 minutes ago, at 17:00 UTC
Forecast valid from 21 at 18 UTC to 22 at 03 UTC
Wind 5 kt from the West/Northwest
Visibility: 4000 m
mist, haze
Becoming
from 22 at 01 UTC to 22 at 03 UTC
Wind 5 kt from the Northwest
Visibility: 3000 m
Few clouds at a height of 2000 ft
mist

TAF: VABV 211700Z 2118/2203 30005KT 4000 BR HZ NSC BECMG 2201/2203 32005KT 3000 BR FEW020

Weather observations and forecasts of more than 4000 airports (METAR and TAF reports).

The available stations are represented by yellow and red dots on the map.

Hover mouse over dot to see the name of the station.

Then click to see weather observations and forecasts.

To change the map : click on the green buttons with a black cross to zoom in, on the green button with a dash to zoom out, or on the green arrows for adjacent maps.


METAR-TAF: